Time;durP1;ratioP1;P1;durP2;ratioP2;P2;SDS_P1;SDS_P2;PMS_P1;PMS_P2;Temp;Humidity;BMP_temperature;BMP_pressure;BME280_temperature;BME280_humidity;BME280_pressure;Samples;Min_cycle;Max_cycle;Signal;HPM_P1;HPM_P2
2023/04/11 00:00:46;;;;;;;;;;;;;;;27.51;36.75;94066.13;4887083;29;8596;-56
2023/04/11 00:03:12;;;;;;;;;;;;;;;27.52;36.89;94064.88;4874331;29;9079;-56
2023/04/11 00:05:41;;;;;;;;;;;;;;;27.52;36.85;94058.59;4895376;29;7101;-56
2023/04/11 00:08:08;;;;;;;;;;;;;;;27.52;36.91;94055.81;4884273;29;9152;-56
2023/04/11 00:10:34;;;;;;;;;;;;;;;27.49;36.90;94063.16;4927781;28;7180;-56
2023/04/11 00:13:00;;;;;;;;;;;;;;;27.51;37.04;94074.41;4950672;28;9354;-56
2023/04/11 00:15:26;;;;;;;;;;;;;;;27.48;36.99;94072.72;4982063;28;7616;-56
2023/04/11 00:17:52;;;;;;;;;;;;;;;27.52;36.83;94086.22;5011191;28;9374;-56
2023/04/11 00:20:19;;;;;;;;;;;;;;;27.52;37.04;94086.22;4993687;28;7100;-56
2023/04/11 00:22:57;;;;;;;;;;;;;;;27.51;36.82;94084.75;4993969;28;8731;-56
2023/04/11 00:26:02;;;;;;;;;;;;;;;27.54;36.72;94083.66;4999481;28;9134;-56
2023/04/11 00:28:33;;;;;;;;;;;;;;;27.53;37.01;94080.16;4978377;28;8637;-56
2023/04/11 00:31:06;;;;;;;;;;;;;;;27.48;36.85;94078.25;5019171;28;7283;-56
2023/04/11 00:33:31;;;;;;;;;;;;;;;27.51;37.14;94087.50;4984571;28;9319;-56
2023/04/11 00:35:57;;;;;;;;;;;;;;;27.50;36.73;94086.75;4987570;28;9099;-56
2023/04/11 00:39:02;;;;;;;;;;;;;;;27.48;37.08;94072.72;4995314;28;7007;-56
2023/04/11 00:41:33;;;;;;;;;;;;;;;27.49;36.81;94067.97;4976126;28;7052;-56
2023/04/11 00:44:29;;;;;;;;;;;;;;;27.48;36.78;94089.31;4993327;28;7035;-56
2023/04/11 00:47:33;;;;;;;;;;;;;;;27.48;36.76;94094.81;4915256;29;7511;-56
2023/04/11 00:50:01;;;;;;;;;;;;;;;27.49;36.80;94090.78;4897178;29;8073;-56
2023/04/11 00:53:02;;;;;;;;;;;;;;;27.49;36.99;94065.91;4915379;29;6959;-56
2023/04/11 00:55:37;;;;;;;;;;;;;;;27.47;36.69;94046.38;4895038;29;6974;-56
2023/04/11 00:58:19;;;;;;;;;;;;;;;27.47;36.92;94049.13;4894220;29;9067;-56
2023/04/11 01:00:48;;;;;;;;;;;;;;;27.47;36.90;94032.56;4874865;29;7355;-56
2023/04/11 01:03:21;;;;;;;;;;;;;;;27.45;36.67;94023.31;4894572;29;9095;-56
2023/04/11 01:06:07;;;;;;;;;;;;;;;27.43;36.84;94026.63;4896437;29;8203;-56
2023/04/11 01:08:51;;;;;;;;;;;;;;;27.43;36.31;94017.56;4875027;29;7082;-56
2023/04/11 01:11:19;;;;;;;;;;;;;;;27.44;36.76;94010.78;4898248;29;7415;-56
2023/04/11 01:13:56;;;;;;;;;;;;;;;27.43;36.97;94006.53;4899817;29;7701;-56
2023/04/11 01:16:51;;;;;;;;;;;;;;;27.42;36.98;94005.81;4914673;29;7256;-56
2023/04/11 01:19:28;;;;;;;;;;;;;;;27.41;36.80;94007.06;4899893;29;9594;-56
2023/04/11 01:22:00;;;;;;;;;;;;;;;27.41;36.82;94007.06;4930093;29;7958;-56
2023/04/11 01:24:48;;;;;;;;;;;;;;;27.42;36.87;94007.81;4995673;28;7294;-56
2023/04/11 01:27:18;;;;;;;;;;;;;;;27.42;36.54;94007.81;4962767;28;9749;-56
2023/04/11 01:29:59;;;;;;;;;;;;;;;27.40;36.93;94005.59;4989210;28;7334;-56
2023/04/11 01:32:44;;;;;;;;;;;;;;;27.40;36.72;94011.13;4985995;28;9769;-56
2023/04/11 01:35:20;;;;;;;;;;;;;;;27.40;36.88;94008.34;4989622;28;7296;-56
2023/04/11 01:37:53;;;;;;;;;;;;;;;27.40;36.80;94005.59;4997583;28;9058;-56
2023/04/11 01:40:21;;;;;;;;;;;;;;;27.39;36.66;93998.56;4999176;28;9082;-56
2023/04/11 01:42:53;;;;;;;;;;;;;;;27.36;36.55;93999.63;4995354;28;7040;-56
2023/04/11 01:45:24;;;;;;;;;;;;;;;27.40;36.81;94002.09;4998693;28;7239;-56
2023/04/11 01:47:55;;;;;;;;;;;;;;;27.40;36.87;94005.59;5015240;28;9495;-56
2023/04/11 01:50:25;;;;;;;;;;;;;;;27.39;37.03;93995.06;4977542;28;7228;-56
2023/04/11 01:52:55;;;;;;;;;;;;;;;27.38;36.56;94005.34;4991149;28;7037;-56
2023/04/11 01:55:29;;;;;;;;;;;;;;;27.39;37.35;94019.91;4986744;28;9062;-56
2023/04/11 01:57:58;;;;;;;;;;;;;;;27.35;36.69;94017.50;5002468;28;9005;-56
2023/04/11 02:00:25;;;;;;;;;;;;;;;27.37;36.58;94020.47;4983410;28;9403;-56
2023/04/11 02:03:03;;;;;;;;;;;;;;;27.37;36.83;94020.47;5016738;28;7255;-56
2023/04/11 02:05:32;;;;;;;;;;;;;;;27.34;37.00;94018.00;4986603;28;7255;-56
2023/04/11 02:08:01;;;;;;;;;;;;;;;27.37;36.82;94006.66;4984361;28;7720;-56
2023/04/11 02:10:27;;;;;;;;;;;;;;;27.38;37.21;94008.13;4998452;28;9432;-56
2023/04/11 02:12:57;;;;;;;;;;;;;;;27.37;36.85;93986.56;4986616;28;8786;-55
2023/04/11 02:15:31;;;;;;;;;;;;;;;27.35;37.07;93984.34;4983227;28;8006;-56
2023/04/11 02:18:04;;;;;;;;;;;;;;;27.35;36.77;93975.28;5009544;28;9072;-56
2023/04/11 02:20:40;;;;;;;;;;;;;;;27.35;36.68;93975.28;4979541;28;9029;-56
2023/04/11 02:23:19;;;;;;;;;;;;;;;27.34;36.90;93968.28;5016891;28;9122;-56
2023/04/11 02:26:32;;;;;;;;;;;;;;;27.34;36.83;93965.53;5002160;28;8080;-56
2023/04/11 02:29:16;;;;;;;;;;;;;;;27.33;36.91;93966.78;4991526;28;7010;-56
2023/04/11 02:32:02;;;;;;;;;;;;;;;27.33;36.61;93984.09;4976122;28;7157;-56
2023/04/11 02:34:30;;;;;;;;;;;;;;;27.34;36.77;93998.66;4984658;28;7283;-56
2023/04/11 02:36:57;;;;;;;;;;;;;;;27.31;36.47;94000.47;4991761;28;7286;-56
2023/04/11 02:39:40;;;;;;;;;;;;;;;27.33;36.76;94003.44;4993213;28;7049;-56
2023/04/11 02:42:38;;;;;;;;;;;;;;;27.32;36.94;94004.69;4978492;28;7242;-56
2023/04/11 02:45:50;;;;;;;;;;;;;;;27.31;36.94;94005.25;4984335;28;7264;-56
2023/04/11 02:48:17;;;;;;;;;;;;;;;27.30;36.72;94003.75;4975958;28;7260;-56
2023/04/11 02:51:06;;;;;;;;;;;;;;;27.30;36.85;93995.47;4983089;28;9338;-56
2023/04/11 02:53:42;;;;;;;;;;;;;;;27.28;36.65;93998.75;4975771;28;8853;-55
2023/04/11 02:56:17;;;;;;;;;;;;;;;27.28;36.73;94007.03;4989798;28;7126;-56
2023/04/11 02:58:44;;;;;;;;;;;;;;;27.27;36.72;94000.06;4992766;28;9102;-56
2023/04/11 03:01:13;;;;;;;;;;;;;;;27.27;36.72;94000.06;4995763;28;7216;-56
2023/04/11 03:03:58;;;;;;;;;;;;;;;27.29;36.62;93988.47;5000946;28;7904;-56
2023/04/11 03:06:25;;;;;;;;;;;;;;;27.29;36.83;93988.47;4994374;28;7081;-55
2023/04/11 03:09:03;;;;;;;;;;;;;;;27.30;36.79;94000.97;4985243;28;9070;-56
2023/04/11 03:11:33;;;;;;;;;;;;;;;27.28;37.15;93996.00;4976146;28;9115;-56
2023/04/11 03:14:19;;;;;;;;;;;;;;;27.26;36.75;94006.84;4988129;28;7271;-56
2023/04/11 03:16:45;;;;;;;;;;;;;;;27.27;36.73;93991.75;4986781;28;8979;-56
2023/04/11 03:19:44;;;;;;;;;;;;;;;27.27;36.72;93997.28;4988395;28;6986;-56
2023/04/11 03:22:22;;;;;;;;;;;;;;;27.26;36.83;94006.09;4997338;28;7269;-56
2023/04/11 03:24:50;;;;;;;;;;;;;;;27.27;36.86;94016.63;4988753;28;7281;-56
2023/04/11 03:27:51;;;;;;;;;;;;;;;27.27;36.61;94030.44;4986232;28;8889;-56
2023/04/11 03:30:26;;;;;;;;;;;;;;;27.26;36.89;94011.59;4992061;28;7085;-56
2023/04/11 03:33:08;;;;;;;;;;;;;;;27.26;36.72;94022.66;4979421;28;9171;-56
2023/04/11 03:35:35;;;;;;;;;;;;;;;27.25;36.66;94026.69;5003095;28;7454;-56
2023/04/11 03:38:19;;;;;;;;;;;;;;;27.25;36.65;94019.13;4985411;28;7270;-56
2023/04/11 03:40:52;;;;;;;;;;;;;;;27.23;36.72;94027.22;4994958;28;7364;-56
2023/04/11 03:43:32;;;;;;;;;;;;;;;27.23;36.74;94026.50;4993010;28;8823;-56
2023/04/11 03:46:00;;;;;;;;;;;;;;;27.23;36.90;94021.69;4992793;28;9049;-56
2023/04/11 03:48:38;;;;;;;;;;;;;;;27.22;36.85;94025.00;5012095;28;7281;-56
2023/04/11 03:51:14;;;;;;;;;;;;;;;27.24;37.18;94036.25;5007714;28;7026;-55
2023/04/11 03:53:44;;;;;;;;;;;;;;;27.23;36.67;94021.69;4983565;28;7443;-55
2023/04/11 03:56:15;;;;;;;;;;;;;;;27.23;36.83;94013.41;5012557;28;7241;-55
2023/04/11 03:58:46;;;;;;;;;;;;;;;27.22;36.97;94014.69;4996763;28;7034;-55
2023/04/11 04:01:26;;;;;;;;;;;;;;;27.21;36.66;94021.47;4992013;28;7257;-56
2023/04/11 04:04:06;;;;;;;;;;;;;;;27.20;36.82;94020.00;4982001;28;7850;-55
2023/04/11 04:06:47;;;;;;;;;;;;;;;27.23;37.09;94020.97;5007718;28;9125;-56
2023/04/11 04:09:25;;;;;;;;;;;;;;;27.23;36.87;94020.97;4994420;28;7276;-55
2023/04/11 04:12:04;;;;;;;;;;;;;;;27.24;37.22;94016.91;4985202;28;8507;-55
2023/04/11 04:14:38;;;;;;;;;;;;;;;27.23;36.71;94013.41;4984468;28;7070;-56
2023/04/11 04:17:10;;;;;;;;;;;;;;;27.22;36.80;94011.94;4997950;28;8782;-55
2023/04/11 04:19:43;;;;;;;;;;;;;;;27.24;36.75;94022.44;4994670;28;9145;-55
2023/04/11 04:22:21;;;;;;;;;;;;;;;27.23;36.97;94018.94;4987982;28;8869;-55
2023/04/11 04:24:49;;;;;;;;;;;;;;;27.24;36.85;94019.69;4970790;28;9150;-55
2023/04/11 04:27:31;;;;;;;;;;;;;;;27.23;37.28;94021.69;4996112;28;7195;-56
2023/04/11 04:30:28;;;;;;;;;;;;;;;27.23;36.98;94035.50;4995653;28;9337;-55
2023/04/11 04:33:02;;;;;;;;;;;;;;;27.19;37.21;94046.13;5013634;28;8970;-55
2023/04/11 04:35:44;;;;;;;;;;;;;;;27.19;36.59;94042.59;4990194;28;9286;-55
2023/04/11 04:38:20;;;;;;;;;;;;;;;27.20;37.18;94057.91;5011105;28;9107;-55
2023/04/11 04:41:42;;;;;;;;;;;;;;;27.20;36.94;94053.13;4988331;28;8816;-55
2023/04/11 04:44:26;;;;;;;;;;;;;;;27.20;37.25;94050.38;4975296;28;7026;-55
2023/04/11 04:47:11;;;;;;;;;;;;;;;27.17;37.61;94059.72;4985559;28;7123;-55
2023/04/11 04:49:55;;;;;;;;;;;;;;;27.13;37.47;94053.00;4984385;28;8221;-55
2023/04/11 04:52:33;;;;;;;;;;;;;;;27.18;39.07;94060.47;4972380;28;7156;-55
2023/04/11 04:55:03;;;;;;;;;;;;;;;27.13;40.12;94053.00;4982745;28;7333;-55
2023/04/11 04:57:41;;;;;;;;;;;;;;;27.15;38.19;94064.28;4989812;28;7274;-55
2023/04/11 05:00:10;;;;;;;;;;;;;;;27.21;37.79;94071.19;4977347;28;7333;-55
2023/04/11 05:02:36;;;;;;;;;;;;;;;27.23;37.62;94073.44;4982086;28;8696;-55
2023/04/11 05:05:04;;;;;;;;;;;;;;;27.23;37.77;94084.47;4972287;28;7464;-55
2023/04/11 05:08:01;;;;;;;;;;;;;;;27.22;38.13;94094.78;4965407;28;7220;-55
2023/04/11 05:10:32;;;;;;;;;;;;;;;27.21;37.63;94096.03;4970528;28;9516;-55
2023/04/11 05:13:08;;;;;;;;;;;;;;;27.20;37.79;94093.81;4960092;28;7629;-56
2023/04/11 05:15:47;;;;;;;;;;;;;;;27.19;37.75;94101.34;4982047;28;7289;-55
2023/04/11 05:18:16;;;;;;;;;;;;;;;27.19;37.85;94101.34;4988670;28;7002;-55
2023/04/11 05:20:52;;;;;;;;;;;;;;;27.21;38.54;94109.13;5012864;28;7406;-55
2023/04/11 05:23:38;;;;;;;;;;;;;;;27.18;38.01;94116.44;5002536;28;7367;-56
2023/04/11 05:26:07;;;;;;;;;;;;;;;27.18;37.53;94126.72;4985604;28;7504;-56
2023/04/11 05:28:44;;;;;;;;;;;;;;;27.12;37.98;94124.03;4992617;28;9120;-55
2023/04/11 05:31:21;;;;;;;;;;;;;;;27.15;37.48;94134.03;4987367;28;7302;-55
2023/04/11 05:34:34;;;;;;;;;;;;;;;27.17;37.71;94134.25;4980232;28;7576;-56
2023/04/11 05:37:21;;;;;;;;;;;;;;;27.16;37.59;94132.78;4986192;28;9481;-55
2023/04/11 05:40:07;;;;;;;;;;;;;;;27.13;37.90;94133.06;4985648;28;9147;-55
2023/04/11 05:42:43;;;;;;;;;;;;;;;27.16;37.79;94134.78;4984455;28;7249;-55
2023/04/11 05:48:43;;;;;;;;;;;;;;;27.15;38.09;94136.81;4984372;28;9032;-55
2023/04/11 05:51:18;;;;;;;;;;;;;;;27.14;38.10;94138.09;4948056;28;7101;-55
2023/04/11 05:53:55;;;;;;;;;;;;;;;27.15;37.56;94139.56;4974725;28;7139;-55
2023/04/11 05:56:21;;;;;;;;;;;;;;;27.11;37.90;94144.66;4993371;28;8996;-55
2023/04/11 05:58:58;;;;;;;;;;;;;;;27.13;37.84;94155.16;4965306;28;7461;-55
2023/04/11 06:01:43;;;;;;;;;;;;;;;27.12;37.49;94157.16;4989217;28;7503;-55
2023/04/11 06:04:09;;;;;;;;;;;;;;;27.09;37.63;94155.47;4990472;28;7027;-55
2023/04/11 06:07:09;;;;;;;;;;;;;;;27.07;37.89;94166.31;4979268;28;7736;-55
2023/04/11 06:10:05;;;;;;;;;;;;;;;27.05;38.19;94168.09;4979727;28;7056;-55
2023/04/11 06:12:44;;;;;;;;;;;;;;;27.03;37.92;94165.88;4990742;28;7041;-55
2023/04/11 06:15:31;;;;;;;;;;;;;;;27.02;38.20;94172.66;5004099;28;8769;-55
2023/04/11 06:17:56;;;;;;;;;;;;;;;27.02;38.43;94164.38;4979824;28;8260;-55
2023/04/11 06:20:30;;;;;;;;;;;;;;;27.02;37.66;94164.38;4981268;28;8842;-55
2023/04/11 06:23:00;;;;;;;;;;;;;;;27.00;38.36;94155.88;4986126;28;7308;-55
2023/04/11 06:25:26;;;;;;;;;;;;;;;27.00;38.53;94153.09;4981002;28;8669;-55
2023/04/11 06:27:56;;;;;;;;;;;;;;;26.98;37.88;94160.41;4992081;28;9335;-55
2023/04/11 06:30:32;;;;;;;;;;;;;;;26.99;38.61;94170.94;5006745;28;7273;-55
2023/04/11 06:32:58;;;;;;;;;;;;;;;27.00;38.56;94166.91;5000641;28;9051;-55
2023/04/11 06:35:24;;;;;;;;;;;;;;;26.97;38.54;94156.91;4980750;28;8947;-55
2023/04/11 06:37:51;;;;;;;;;;;;;;;26.98;38.37;94158.41;4988488;28;9126;-55
2023/04/11 06:40:19;;;;;;;;;;;;;;;27.00;38.57;94161.38;5014226;28;7267;-55
2023/04/11 06:42:47;;;;;;;;;;;;;;;26.99;38.80;94154.38;5005686;28;7828;-55
2023/04/11 06:45:13;;;;;;;;;;;;;;;26.99;38.57;94156.41;4984652;28;8701;-56
2023/04/11 06:47:44;;;;;;;;;;;;;;;27.00;38.83;94155.13;4998601;28;9121;-55
2023/04/11 06:50:10;;;;;;;;;;;;;;;26.97;38.94;94153.44;4981361;28;7266;-55
2023/04/11 06:52:38;;;;;;;;;;;;;;;27.00;38.99;94161.38;4992740;28;7034;-55
2023/04/11 06:55:06;;;;;;;;;;;;;;;26.99;38.81;94170.19;5003098;28;9560;-55
2023/04/11 06:57:32;;;;;;;;;;;;;;;26.97;38.78;94167.94;4987289;28;9398;-55
2023/04/11 07:00:00;;;;;;;;;;;;;;;26.98;38.53;94174.97;4998878;28;7029;-55
2023/04/11 07:02:26;;;;;;;;;;;;;;;27.00;38.90;94175.19;4987241;28;7053;-55
2023/04/11 07:04:53;;;;;;;;;;;;;;;27.00;39.18;94177.19;5005126;28;7247;-55
2023/04/11 07:07:27;;;;;;;;;;;;;;;26.98;39.35;94185.25;4982218;28;7400;-56
2023/04/11 07:09:54;;;;;;;;;;;;;;;26.98;38.85;94188.78;5009562;28;7286;-55
2023/04/11 07:12:21;;;;;;;;;;;;;;;27.01;38.83;94184.97;5010545;28;9049;-55
2023/04/11 07:14:50;;;;;;;;;;;;;;;27.00;39.14;94194.50;5000736;28;6988;-55
2023/04/11 07:17:16;;;;;;;;;;;;;;;26.97;38.81;94184.50;4988076;28;7249;-55
2023/04/11 07:19:58;;;;;;;;;;;;;;;26.99;38.95;94193.00;4997801;28;7178;-55
2023/04/11 07:22:28;;;;;;;;;;;;;;;26.99;39.37;94198.53;4980717;28;7210;-55
2023/04/11 07:25:10;;;;;;;;;;;;;;;26.98;38.99;94202.56;5000285;28;9037;-55
2023/04/11 07:27:42;;;;;;;;;;;;;;;26.99;39.12;94208.84;4984904;28;7585;-56
2023/04/11 07:30:09;;;;;;;;;;;;;;;26.97;38.99;94192.78;4992657;28;7036;-55
2023/04/11 07:32:36;;;;;;;;;;;;;;;26.98;39.03;94182.50;4992240;28;8746;-55
2023/04/11 07:35:03;;;;;;;;;;;;;;;26.99;38.66;94186.75;4994195;28;7237;-55
2023/04/11 07:37:31;;;;;;;;;;;;;;;26.99;39.12;94186.75;4984427;28;7310;-55
2023/04/11 07:40:05;;;;;;;;;;;;;;;26.97;39.12;94183.78;5000611;28;7053;-55
2023/04/11 07:42:31;;;;;;;;;;;;;;;26.97;39.47;94195.56;4991701;28;7034;-55
2023/04/11 07:44:58;;;;;;;;;;;;;;;26.97;38.98;94195.56;4988567;28;7279;-55
2023/04/11 07:47:24;;;;;;;;;;;;;;;26.97;39.26;94200.34;4983490;28;9020;-55
2023/04/11 07:49:50;;;;;;;;;;;;;;;26.98;39.04;94215.63;4991769;28;7034;-55
2023/04/11 07:52:17;;;;;;;;;;;;;;;26.94;39.26;94213.19;4990786;28;9577;-55
2023/04/11 07:54:43;;;;;;;;;;;;;;;26.97;39.19;94214.88;4989670;28;9065;-55
2023/04/11 07:57:09;;;;;;;;;;;;;;;26.98;39.11;94210.84;4992241;28;7125;-55
2023/04/11 07:59:37;;;;;;;;;;;;;;;27.00;38.99;94227.63;4985888;28;9054;-55
2023/04/11 08:02:15;;;;;;;;;;;;;;;27.01;39.07;94229.16;5001447;28;7091;-55
2023/04/11 08:04:44;;;;;;;;;;;;;;;27.04;38.87;94228.06;4995654;28;9761;-55
2023/04/11 08:07:38;;;;;;;;;;;;;;;27.07;38.77;94248.38;4986531;28;7037;-55
2023/04/11 08:10:20;;;;;;;;;;;;;;;27.06;38.44;94253.13;5002381;28;7553;-55
2023/04/11 08:12:49;;;;;;;;;;;;;;;27.07;38.93;94237.31;4997204;28;7262;-55
2023/04/11 08:15:16;;;;;;;;;;;;;;;27.07;38.96;94248.38;5008348;28;8593;-55
2023/04/11 08:17:44;;;;;;;;;;;;;;;27.06;38.87;94236.56;4986995;28;9020;-55
2023/04/11 08:20:14;;;;;;;;;;;;;;;27.06;38.93;94242.09;4986184;28;7270;-55
2023/04/11 08:22:43;;;;;;;;;;;;;;;27.09;39.02;94238.31;4991651;28;9096;-55
2023/04/11 08:25:11;;;;;;;;;;;;;;;27.13;38.95;94255.31;5006740;28;7029;-56
2023/04/11 08:27:40;;;;;;;;;;;;;;;27.13;38.95;94254.56;4990477;28;8718;-56
2023/04/11 08:30:10;;;;;;;;;;;;;;;27.15;38.58;94255.53;4994257;28;9145;-55
2023/04/11 08:32:45;;;;;;;;;;;;;;;27.14;38.67;94247.78;4989564;28;7143;-55
2023/04/11 08:35:25;;;;;;;;;;;;;;;27.13;38.74;94257.31;4998524;28;7140;-55
2023/04/11 08:37:57;;;;;;;;;;;;;;;27.11;38.61;94263.38;4983173;28;8087;-55
2023/04/11 08:40:35;;;;;;;;;;;;;;;27.09;38.85;94267.91;4993052;28;9024;-55
2023/04/11 08:43:11;;;;;;;;;;;;;;;27.10;38.55;94277.69;4997508;28;7477;-55
2023/04/11 08:45:52;;;;;;;;;;;;;;;27.11;38.23;94270.91;4999956;28;8375;-55
2023/04/11 08:48:25;;;;;;;;;;;;;;;27.09;39.06;94279.72;4984862;28;8998;-55
2023/04/11 08:50:52;;;;;;;;;;;;;;;27.10;38.73;94289.47;5007540;28;9450;-55
2023/04/11 08:53:35;;;;;;;;;;;;;;;27.09;38.60;94290.00;4993936;28;7189;-56
2023/04/11 08:56:06;;;;;;;;;;;;;;;27.12;38.04;94295.22;4979779;28;7165;-56
2023/04/11 08:58:32;;;;;;;;;;;;;;;27.12;38.88;94311.78;4996818;28;9076;-55
2023/04/11 09:01:27;;;;;;;;;;;;;;;27.14;38.48;94319.56;4991095;28;9034;-55
2023/04/11 09:03:57;;;;;;;;;;;;;;;27.13;38.25;94312.53;4986638;28;9102;-55
2023/04/11 09:06:26;;;;;;;;;;;;;;;27.14;38.71;94323.06;5003608;28;7235;-55
2023/04/11 09:08:53;;;;;;;;;;;;;;;27.12;38.52;94306.25;5007601;28;7182;-55
2023/04/11 09:12:07;;;;;;;;;;;;;;;27.12;38.83;94316.56;4987897;28;7265;-55
2023/04/11 09:14:44;;;;;;;;;;;;;;;27.10;38.50;94325.34;5009072;28;7266;-56
2023/04/11 09:17:42;;;;;;;;;;;;;;;27.11;38.69;94326.13;4995186;28;7963;-56
2023/04/11 09:20:30;;;;;;;;;;;;;;;27.12;38.98;94338.66;4971095;28;8492;-55
2023/04/11 09:23:00;;;;;;;;;;;;;;;27.12;39.31;94344.19;4962269;28;9068;-56
2023/04/11 09:25:52;;;;;;;;;;;;;;;27.13;38.56;94340.91;4974252;28;7031;-56
2023/04/11 09:28:52;;;;;;;;;;;;;;;27.10;38.34;94344.69;4965728;28;7574;-55
2023/04/11 09:31:44;;;;;;;;;;;;;;;27.12;38.56;94339.38;4933527;28;7285;-55
2023/04/11 09:37:53;;;;;;;;;;;;;;;27.14;38.75;94345.16;4952735;28;8785;-56
2023/04/11 09:40:31;;;;;;;;;;;;;;;27.10;38.51;94344.69;4961391;28;9061;-55
2023/04/11 09:43:06;;;;;;;;;;;;;;;27.08;38.29;94344.47;4957865;28;7053;-56
2023/04/11 09:46:10;;;;;;;;;;;;;;;27.12;38.67;94355.22;4935715;28;7283;-56
2023/04/11 09:48:55;;;;;;;;;;;;;;;27.10;38.93;94336.41;4947599;28;7094;-56
2023/04/11 09:51:23;;;;;;;;;;;;;;;27.11;38.47;94326.88;4937077;28;7256;-56
2023/04/11 09:54:04;;;;;;;;;;;;;;;27.11;38.70;94321.34;4953132;28;7135;-55
2023/04/11 09:57:04;;;;;;;;;;;;;;;27.09;38.31;94318.34;4965438;28;9046;-56
2023/04/11 09:59:57;;;;;;;;;;;;;;;27.09;38.76;94317.59;4934496;28;7370;-55
2023/04/11 10:02:23;;;;;;;;;;;;;;;27.04;39.02;94319.16;4932255;28;7293;-55
2023/04/11 10:05:03;;;;;;;;;;;;;;;27.03;38.70;94320.47;4935835;28;7075;-55
2023/04/11 10:07:29;;;;;;;;;;;;;;;27.02;38.60;94324.47;4958576;28;9376;-55
2023/04/11 10:09:57;;;;;;;;;;;;;;;27.00;38.74;94332.53;4963077;28;8743;-56
2023/04/11 10:12:43;;;;;;;;;;;;;;;27.01;38.91;94331.28;4961832;28;8015;-56
2023/04/11 10:15:27;;;;;;;;;;;;;;;27.03;39.01;94325.97;4960253;28;9430;-56
2023/04/11 10:18:20;;;;;;;;;;;;;;;27.01;39.22;94336.78;4963926;28;7247;-56
2023/04/11 10:21:04;;;;;;;;;;;;;;;26.98;39.00;94337.81;4961674;28;7291;-55
2023/04/11 10:27:52;;;;;;;;;;;;;;;26.97;39.09;94330.81;4979292;28;7253;-55
2023/04/11 10:30:41;;;;;;;;;;;;;;;26.98;38.98;94323.28;4962323;28;8764;-55
2023/04/11 10:33:25;;;;;;;;;;;;;;;26.98;39.00;94324.03;4975158;28;9098;-55
2023/04/11 10:36:02;;;;;;;;;;;;;;;26.98;38.57;94318.50;4994960;28;9190;-55
2023/04/11 10:39:00;;;;;;;;;;;;;;;26.96;38.76;94323.81;4995847;28;9078;-55
2023/04/11 10:41:37;;;;;;;;;;;;;;;26.94;38.96;94329.09;4999238;28;9083;-55
2023/04/11 10:44:28;;;;;;;;;;;;;;;26.94;39.24;94331.88;5004849;28;9414;-56
2023/04/11 10:46:55;;;;;;;;;;;;;;;26.95;39.17;94330.56;4989286;28;8678;-55
2023/04/11 10:49:39;;;;;;;;;;;;;;;26.94;39.09;94337.38;4981262;28;8621;-55
2023/04/11 10:52:21;;;;;;;;;;;;;;;26.95;38.74;94336.09;5000473;28;7278;-55
2023/04/11 10:54:56;;;;;;;;;;;;;;;26.94;38.93;94331.88;4994414;28;7444;-56
2023/04/11 10:58:12;;;;;;;;;;;;;;;26.95;39.04;94332.63;4992095;28;7420;-56
2023/04/11 11:01:23;;;;;;;;;;;;;;;26.96;38.66;94332.09;5021160;28;7035;-56
2023/04/11 11:03:55;;;;;;;;;;;;;;;26.97;38.69;94335.59;4998522;28;7077;-55
2023/04/11 11:06:28;;;;;;;;;;;;;;;26.97;38.92;94335.59;4989820;28;7026;-55
2023/04/11 11:09:20;;;;;;;;;;;;;;;26.97;39.02;94338.34;4986058;28;7461;-55
2023/04/11 11:12:12;;;;;;;;;;;;;;;26.96;38.70;94337.59;4999949;28;7239;-55
2023/04/11 11:14:46;;;;;;;;;;;;;;;26.97;38.97;94327.31;4990026;28;7292;-55
2023/04/11 11:17:19;;;;;;;;;;;;;;;26.94;39.27;94309.78;4984918;28;8815;-56
2023/04/11 11:19:46;;;;;;;;;;;;;;;26.96;39.24;94310.00;5020525;28;9442;-55
2023/04/11 11:22:29;;;;;;;;;;;;;;;26.93;39.35;94311.03;4994985;28;7051;-56
2023/04/11 11:25:36;;;;;;;;;;;;;;;26.98;38.85;94326.03;4992042;28;7439;-56
2023/04/11 11:28:28;;;;;;;;;;;;;;;26.96;38.77;94323.06;4982775;28;7276;-55
2023/04/11 11:30:56;;;;;;;;;;;;;;;26.97;38.49;94325.28;4992121;28;9052;-55
2023/04/11 11:33:54;;;;;;;;;;;;;;;26.96;38.59;94332.09;4974541;28;8840;-55
2023/04/11 11:36:47;;;;;;;;;;;;;;;26.96;38.84;94336.84;4892888;29;7218;-55
2023/04/11 11:39:42;;;;;;;;;;;;;;;26.96;38.94;94332.09;4893751;29;8803;-55
2023/04/11 11:42:21;;;;;;;;;;;;;;;26.96;39.07;94334.84;4910615;29;7391;-55
2023/04/11 11:45:20;;;;;;;;;;;;;;;26.96;38.89;94331.34;4907663;29;7127;-56
2023/04/11 11:47:56;;;;;;;;;;;;;;;26.94;38.86;94334.63;4879664;29;7050;-55
2023/04/11 11:50:28;;;;;;;;;;;;;;;26.95;38.77;94341.63;4880231;29;7045;-55
2023/04/11 11:52:58;;;;;;;;;;;;;;;26.96;38.56;94347.91;4877948;29;7613;-55
2023/04/11 11:55:44;;;;;;;;;;;;;;;26.94;38.68;94345.66;4877700;29;7532;-55
2023/04/11 11:58:20;;;;;;;;;;;;;;;26.95;39.14;94338.84;4879220;29;7264;-56
2023/04/11 12:00:53;;;;;;;;;;;;;;;26.96;39.04;94345.88;4879068;29;7073;-55
2023/04/11 12:03:42;;;;;;;;;;;;;;;26.99;38.74;94339.31;4887274;29;7279;-55
2023/04/11 12:06:20;;;;;;;;;;;;;;;27.02;38.62;94343.78;4878795;29;7110;-55
2023/04/11 12:09:00;;;;;;;;;;;;;;;27.04;38.73;94335.75;4878299;29;7055;-55
2023/04/11 12:11:45;;;;;;;;;;;;;;;27.03;38.65;94333.50;4908454;28;7050;-55
2023/04/11 12:14:24;;;;;;;;;;;;;;;27.05;38.74;94336.50;4962102;28;7446;-55
2023/04/11 12:16:55;;;;;;;;;;;;;;;27.05;39.25;94344.78;4983207;28;7566;-55
2023/04/11 12:19:40;;;;;;;;;;;;;;;27.07;38.51;94348.50;4940851;28;9255;-55
2023/04/11 12:22:06;;;;;;;;;;;;;;;27.06;38.70;94337.97;4954939;28;7219;-55
2023/04/11 12:24:38;;;;;;;;;;;;;;;27.06;39.01;94335.97;5007718;28;7261;-55
2023/04/11 12:27:25;;;;;;;;;;;;;;;27.07;38.73;94336.72;4996438;28;7261;-55
2023/04/11 12:29:52;;;;;;;;;;;;;;;27.05;39.00;94339.25;4995334;28;7180;-56
2023/04/11 12:32:23;;;;;;;;;;;;;;;27.05;38.71;94342.00;4995722;28;7244;-55
2023/04/11 12:34:55;;;;;;;;;;;;;;;27.08;38.37;94338.94;4983547;28;9445;-55
2023/04/11 12:37:41;;;;;;;;;;;;;;;27.08;38.53;94338.22;4999701;28;7369;-55
2023/04/11 12:40:11;;;;;;;;;;;;;;;27.06;38.85;94343.50;4990737;28;8899;-55
2023/04/11 12:43:22;;;;;;;;;;;;;;;27.09;38.39;94342.44;4995870;28;7245;-55
2023/04/11 12:46:01;;;;;;;;;;;;;;;27.09;38.55;94334.16;4999943;28;9447;-55
2023/04/11 12:48:27;;;;;;;;;;;;;;;27.06;38.72;94330.44;4976977;28;7136;-55
2023/04/11 12:50:53;;;;;;;;;;;;;;;27.08;38.62;94344.47;4976593;28;7198;-55
2023/04/11 12:53:19;;;;;;;;;;;;;;;27.10;38.73;94336.41;4989775;28;7695;-56
2023/04/11 12:55:53;;;;;;;;;;;;;;;27.09;38.77;94339.69;4988985;28;9082;-55
2023/04/11 12:58:19;;;;;;;;;;;;;;;27.08;38.80;94338.22;4990481;28;7007;-55
2023/04/11 13:00:46;;;;;;;;;;;;;;;27.08;38.52;94341.69;4970862;28;7336;-55
2023/04/11 13:03:12;;;;;;;;;;;;;;;27.08;38.79;94332.69;4986668;28;8441;-55
2023/04/11 13:05:38;;;;;;;;;;;;;;;27.09;39.03;94339.69;4968690;28;7142;-55
2023/04/11 13:08:04;;;;;;;;;;;;;;;27.09;38.83;94337.69;4977418;28;9577;-55
2023/04/11 13:10:30;;;;;;;;;;;;;;;27.11;38.21;94343.44;4978249;28;7147;-55
2023/04/11 13:12:58;;;;;;;;;;;;;;;27.09;38.37;94334.94;4985686;28;9419;-55
2023/04/11 13:15:24;;;;;;;;;;;;;;;27.10;38.60;94330.88;4989908;28;7026;-55
2023/04/11 13:17:49;;;;;;;;;;;;;;;27.08;38.75;94330.66;4984777;28;9195;-55
2023/04/11 13:20:19;;;;;;;;;;;;;;;27.10;38.41;94325.34;4985754;28;7541;-55
2023/04/11 13:22:45;;;;;;;;;;;;;;;27.10;38.53;94319.13;4987129;28;7509;-55
2023/04/11 13:25:13;;;;;;;;;;;;;;;27.09;38.48;94326.66;4990045;28;7014;-55
2023/04/11 13:27:43;;;;;;;;;;;;;;;27.08;38.85;94322.38;5001904;28;9028;-55
2023/04/11 13:30:12;;;;;;;;;;;;;;;27.13;38.29;94323.56;4988185;28;9101;-55
2023/04/11 13:32:40;;;;;;;;;;;;;;;27.12;38.59;94322.09;4979309;28;9355;-55
2023/04/11 13:35:07;;;;;;;;;;;;;;;27.14;38.58;94320.31;4990932;28;7495;-55
2023/04/11 13:37:33;;;;;;;;;;;;;;;27.13;38.59;94320.81;4988483;28;7411;-55
2023/04/11 13:40:01;;;;;;;;;;;;;;;27.13;38.90;94329.09;4990407;28;8688;-55
2023/04/11 13:42:27;;;;;;;;;;;;;;;27.14;38.60;94320.31;4988510;28;9081;-55
2023/04/11 13:44:55;;;;;;;;;;;;;;;27.12;38.50;94313.81;4992381;28;9105;-55
2023/04/11 13:47:26;;;;;;;;;;;;;;;27.15;38.00;94316.25;4985846;28;9254;-55
2023/04/11 13:49:51;;;;;;;;;;;;;;;27.16;38.56;94317.78;4984688;28;8784;-56
2023/04/11 13:52:20;;;;;;;;;;;;;;;27.15;39.17;94310.00;5004084;28;7598;-55
2023/04/11 13:54:48;;;;;;;;;;;;;;;27.16;38.77;94306.72;5004224;28;9484;-55
2023/04/11 13:57:17;;;;;;;;;;;;;;;27.15;38.96;94296.94;4985039;28;9509;-55